sensor_id;sensor_type;location;lat;lon;timestamp;pressure;altitude;pressure_sealevel;temperature;humidity
72110;BME280;59983;52.010;5.420;2023-07-13T00:00:09;101332.91;;;16.79;91.35
72110;BME280;59983;52.010;5.420;2023-07-13T00:02:36;101334.03;;;16.75;91.77
72110;BME280;59983;52.010;5.420;2023-07-13T00:05:03;101330.81;;;16.69;92.27
72110;BME280;59983;52.010;5.420;2023-07-13T00:07:30;101333.50;;;16.65;92.43
72110;BME280;59983;52.010;5.420;2023-07-13T00:09:57;101339.28;;;16.57;92.60
72110;BME280;59983;52.010;5.420;2023-07-13T00:12:26;101334.94;;;16.52;92.83
72110;BME280;59983;52.010;5.420;2023-07-13T00:14:56;101346.19;;;16.47;93.01
72110;BME280;59983;52.010;5.420;2023-07-13T00:17:23;101337.97;;;16.47;93.06
72110;BME280;59983;52.010;5.420;2023-07-13T00:19:50;101343.47;;;16.47;92.69
72110;BME280;59983;52.010;5.420;2023-07-13T00:22:17;101331.66;;;16.43;92.87
72110;BME280;59983;52.010;5.420;2023-07-13T00:24:44;101337.50;;;16.41;92.97
72110;BME280;59983;52.010;5.420;2023-07-13T00:27:11;101337.84;;;16.36;93.02
72110;BME280;59983;52.010;5.420;2023-07-13T00:29:38;101338.97;;;16.32;93.38
72110;BME280;59983;52.010;5.420;2023-07-13T00:32:05;101341.59;;;16.25;93.28
72110;BME280;59983;52.010;5.420;2023-07-13T00:34:33;101335.03;;;16.29;93.42
72110;BME280;59983;52.010;5.420;2023-07-13T00:36:59;101334.19;;;16.25;93.77
72110;BME280;59983;52.010;5.420;2023-07-13T00:39:26;101336.47;;;16.20;93.67
72110;BME280;59983;52.010;5.420;2023-07-13T00:41:53;101334.09;;;16.18;94.11
72110;BME280;59983;52.010;5.420;2023-07-13T00:44:20;101338.34;;;16.15;94.09
72110;BME280;59983;52.010;5.420;2023-07-13T00:46:49;101332.81;;;16.08;94.68
72110;BME280;59983;52.010;5.420;2023-07-13T00:49:19;101339.78;;;16.06;94.67
72110;BME280;59983;52.010;5.420;2023-07-13T00:51:59;101337.13;;;16.09;94.77
72110;BME280;59983;52.010;5.420;2023-07-13T00:54:33;101343.75;;;16.08;94.97
72110;BME280;59983;52.010;5.420;2023-07-13T00:57:02;101345.69;;;16.08;95.16
72110;BME280;59983;52.010;5.420;2023-07-13T00:59:30;101336.22;;;16.02;95.35
72110;BME280;59983;52.010;5.420;2023-07-13T01:01:57;101342.09;;;16.04;95.96
72110;BME280;59983;52.010;5.420;2023-07-13T01:04:25;101349.41;;;15.96;96.34
72110;BME280;59983;52.010;5.420;2023-07-13T01:06:52;101341.59;;;15.95;96.56
72110;BME280;59983;52.010;5.420;2023-07-13T01:09:19;101348.22;;;15.94;96.48
72110;BME280;59983;52.010;5.420;2023-07-13T01:11:47;101351.31;;;15.92;96.62
72110;BME280;59983;52.010;5.420;2023-07-13T01:14:15;101345.06;;;15.92;96.59
72110;BME280;59983;52.010;5.420;2023-07-13T01:16:45;101357.97;;;15.91;96.50
72110;BME280;59983;52.010;5.420;2023-07-13T01:19:20;101359.53;;;15.92;96.30
72110;BME280;59983;52.010;5.420;2023-07-13T01:21:52;101350.16;;;15.93;96.38
72110;BME280;59983;52.010;5.420;2023-07-13T01:24:19;101341.31;;;16.03;96.07
72110;BME280;59983;52.010;5.420;2023-07-13T01:26:46;101343.66;;;16.01;95.45
72110;BME280;59983;52.010;5.420;2023-07-13T01:29:12;101360.88;;;16.05;95.56
72110;BME280;59983;52.010;5.420;2023-07-13T01:31:39;101354.97;;;16.00;95.93
72110;BME280;59983;52.010;5.420;2023-07-13T01:34:05;101368.19;;;15.98;96.12
72110;BME280;59983;52.010;5.420;2023-07-13T01:36:32;101365.44;;;15.94;96.40
72110;BME280;59983;52.010;5.420;2023-07-13T01:38:59;101365.38;;;15.91;96.76
72110;BME280;59983;52.010;5.420;2023-07-13T01:41:26;101364.16;;;15.88;97.09
72110;BME280;59983;52.010;5.420;2023-07-13T01:43:52;101355.25;;;15.95;96.83
72110;BME280;59983;52.010;5.420;2023-07-13T01:46:19;101363.47;;;15.95;96.94
72110;BME280;59983;52.010;5.420;2023-07-13T01:48:48;101362.19;;;15.89;97.11
72110;BME280;59983;52.010;5.420;2023-07-13T01:51:15;101366.88;;;15.88;97.18
72110;BME280;59983;52.010;5.420;2023-07-13T01:53:42;101352.53;;;15.95;97.26
72110;BME280;59983;52.010;5.420;2023-07-13T01:56:08;101354.88;;;15.96;96.95
72110;BME280;59983;52.010;5.420;2023-07-13T01:58:35;101365.38;;;15.91;97.05
72110;BME280;59983;52.010;5.420;2023-07-13T02:01:02;101357.84;;;15.84;96.92
72110;BME280;59983;52.010;5.420;2023-07-13T02:03:28;101363.59;;;15.75;97.67
72110;BME280;59983;52.010;5.420;2023-07-13T02:05:55;101366.16;;;15.65;98.24
72110;BME280;59983;52.010;5.420;2023-07-13T02:08:21;101366.38;;;15.56;98.89
72110;BME280;59983;52.010;5.420;2023-07-13T02:10:48;101366.72;;;15.54;99.60
72110;BME280;59983;52.010;5.420;2023-07-13T02:13:15;101373.72;;;15.52;100.00
72110;BME280;59983;52.010;5.420;2023-07-13T02:15:41;101367.44;;;15.51;100.00
72110;BME280;59983;52.010;5.420;2023-07-13T02:18:08;101369.41;;;15.51;100.00
72110;BME280;59983;52.010;5.420;2023-07-13T02:20:35;101367.44;;;15.51;100.00
72110;BME280;59983;52.010;5.420;2023-07-13T02:23:01;101368.19;;;15.48;100.00
72110;BME280;59983;52.010;5.420;2023-07-13T02:25:28;101362.22;;;15.43;100.00
72110;BME280;59983;52.010;5.420;2023-07-13T02:27:55;101375.09;;;15.42;100.00
72110;BME280;59983;52.010;5.420;2023-07-13T02:30:22;101370.38;;;15.39;100.00
72110;BME280;59983;52.010;5.420;2023-07-13T02:32:51;101368.03;;;15.38;100.00
72110;BME280;59983;52.010;5.420;2023-07-13T02:35:18;101371.81;;;15.33;100.00
72110;BME280;59983;52.010;5.420;2023-07-13T02:37:44;101373.78;;;15.33;100.00
72110;BME280;59983;52.010;5.420;2023-07-13T02:40:11;101373.41;;;15.34;100.00
72110;BME280;59983;52.010;5.420;2023-07-13T02:42:38;101373.41;;;15.34;100.00
72110;BME280;59983;52.010;5.420;2023-07-13T02:45:06;101371.03;;;15.33;100.00
72110;BME280;59983;52.010;5.420;2023-07-13T02:47:34;101367.81;;;15.27;100.00
72110;BME280;59983;52.010;5.420;2023-07-13T02:50:02;101365.06;;;15.27;100.00
72110;BME280;59983;52.010;5.420;2023-07-13T02:52:28;101371.28;;;15.24;100.00
72110;BME280;59983;52.010;5.420;2023-07-13T02:54:55;101375.16;;;15.23;100.00
72110;BME280;59983;52.010;5.420;2023-07-13T02:57:22;101364.59;;;15.21;100.00
72110;BME280;59983;52.010;5.420;2023-07-13T02:59:48;101369.19;;;15.17;100.00
72110;BME280;59983;52.010;5.420;2023-07-13T03:02:15;101372.31;;;15.16;100.00
72110;BME280;59983;52.010;5.420;2023-07-13T03:04:42;101366.78;;;15.12;100.00
72110;BME280;59983;52.010;5.420;2023-07-13T03:07:08;101378.41;;;15.09;100.00
72110;BME280;59983;52.010;5.420;2023-07-13T03:09:35;101381.53;;;15.08;100.00
72110;BME280;59983;52.010;5.420;2023-07-13T03:12:01;101376.00;;;15.04;100.00
72110;BME280;59983;52.010;5.420;2023-07-13T03:14:28;101385.69;;;15.01;100.00
72110;BME280;59983;52.010;5.420;2023-07-13T03:16:56;101378.66;;;15.00;100.00
72110;BME280;59983;52.010;5.420;2023-07-13T03:19:23;101380.22;;;15.01;100.00
72110;BME280;59983;52.010;5.420;2023-07-13T03:21:49;101381.84;;;15.02;100.00
72110;BME280;59983;52.010;5.420;2023-07-13T03:24:16;101378.31;;;15.02;100.00
72110;BME280;59983;52.010;5.420;2023-07-13T03:26:42;101384.47;;;14.99;100.00
72110;BME280;59983;52.010;5.420;2023-07-13T03:29:09;101396.19;;;14.99;100.00
72110;BME280;59983;52.010;5.420;2023-07-13T03:31:37;101393.81;;;14.98;100.00
72110;BME280;59983;52.010;5.420;2023-07-13T03:34:04;101393.81;;;14.98;100.00
72110;BME280;59983;52.010;5.420;2023-07-13T03:36:32;101399.66;;;14.96;100.00
72110;BME280;59983;52.010;5.420;2023-07-13T03:39:02;101394.09;;;14.93;100.00
72110;BME280;59983;52.010;5.420;2023-07-13T03:41:29;101398.09;;;14.95;100.00
72110;BME280;59983;52.010;5.420;2023-07-13T03:43:58;101396.19;;;14.99;100.00
72110;BME280;59983;52.010;5.420;2023-07-13T03:46:24;101393.88;;;15.01;100.00
72110;BME280;59983;52.010;5.420;2023-07-13T03:48:51;101393.03;;;14.97;100.00
72110;BME280;59983;52.010;5.420;2023-07-13T03:51:19;101403.53;;;14.95;100.00
72110;BME280;59983;52.010;5.420;2023-07-13T03:53:46;101404.03;;;15.01;100.00
72110;BME280;59983;52.010;5.420;2023-07-13T03:56:14;101408.69;;;15.00;100.00
72110;BME280;59983;52.010;5.420;2023-07-13T03:58:43;101410.28;;;15.01;100.00
72110;BME280;59983;52.010;5.420;2023-07-13T04:01:10;101418.97;;;15.07;100.00
72110;BME280;59983;52.010;5.420;2023-07-13T04:03:38;101421.81;;;15.11;100.00
72110;BME280;59983;52.010;5.420;2023-07-13T04:06:06;101423.84;;;15.17;100.00
72110;BME280;59983;52.010;5.420;2023-07-13T04:08:35;101426.31;;;15.22;100.00
72110;BME280;59983;52.010;5.420;2023-07-13T04:11:04;101425.09;;;15.20;100.00
72110;BME280;59983;52.010;5.420;2023-07-13T04:13:30;101421.22;;;15.21;100.00
72110;BME280;59983;52.010;5.420;2023-07-13T04:15:57;101429.41;;;15.21;100.00
72110;BME280;59983;52.010;5.420;2023-07-13T04:18:24;101430.56;;;15.20;100.00
72110;BME280;59983;52.010;5.420;2023-07-13T04:20:50;101434.50;;;15.22;100.00
72110;BME280;59983;52.010;5.420;2023-07-13T04:23:17;101432.56;;;15.23;100.00
72110;BME280;59983;52.010;5.420;2023-07-13T04:25:48;101434.94;;;15.24;100.00
72110;BME280;59983;52.010;5.420;2023-07-13T04:28:21;101435.34;;;15.26;100.00
72110;BME280;59983;52.010;5.420;2023-07-13T04:30:48;101437.28;;;15.26;100.00
72110;BME280;59983;52.010;5.420;2023-07-13T04:33:15;101441.38;;;15.36;100.00
72110;BME280;59983;52.010;5.420;2023-07-13T04:35:43;101441.50;;;15.43;100.00
72110;BME280;59983;52.010;5.420;2023-07-13T04:38:13;101444.25;;;15.43;100.00
72110;BME280;59983;52.010;5.420;2023-07-13T04:40:44;101447.25;;;15.57;100.00
72110;BME280;59983;52.010;5.420;2023-07-13T04:43:11;101443.34;;;15.58;100.00
72110;BME280;59983;52.010;5.420;2023-07-13T04:45:38;101440.63;;;15.58;100.00
72110;BME280;59983;52.010;5.420;2023-07-13T04:48:05;101445.31;;;15.57;100.00
72110;BME280;59983;52.010;5.420;2023-07-13T04:50:32;101441.34;;;15.55;100.00
72110;BME280;59983;52.010;5.420;2023-07-13T04:52:58;101448.75;;;15.54;100.00
72110;BME280;59983;52.010;5.420;2023-07-13T04:55:25;101444.44;;;15.53;100.00
72110;BME280;59983;52.010;5.420;2023-07-13T04:57:52;101444.50;;;15.57;100.00
72110;BME280;59983;52.010;5.420;2023-07-13T05:00:18;101441.69;;;15.53;100.00
72110;BME280;59983;52.010;5.420;2023-07-13T05:02:46;101441.69;;;15.53;100.00
72110;BME280;59983;52.010;5.420;2023-07-13T05:05:13;101444.88;;;15.55;100.00
72110;BME280;59983;52.010;5.420;2023-07-13T05:07:40;101449.91;;;15.53;100.00
72110;BME280;59983;52.010;5.420;2023-07-13T05:10:07;101449.97;;;15.57;100.00
72110;BME280;59983;52.010;5.420;2023-07-13T05:12:33;101454.66;;;15.56;100.00
72110;BME280;59983;52.010;5.420;2023-07-13T05:15:01;101456.25;;;15.57;100.00
72110;BME280;59983;52.010;5.420;2023-07-13T05:17:28;101456.31;;;15.61;100.00
72110;BME280;59983;52.010;5.420;2023-07-13T05:19:54;101463.81;;;15.64;100.00
72110;BME280;59983;52.010;5.420;2023-07-13T05:22:21;101461.88;;;15.65;100.00
72110;BME280;59983;52.010;5.420;2023-07-13T05:24:48;101459.59;;;15.70;100.00
72110;BME280;59983;52.010;5.420;2023-07-13T05:27:14;101469.88;;;15.77;100.00
72110;BME280;59983;52.010;5.420;2023-07-13T05:29:41;101473.41;;;15.77;100.00
72110;BME280;59983;52.010;5.420;2023-07-13T05:32:08;101472.63;;;15.77;100.00
72110;BME280;59983;52.010;5.420;2023-07-13T05:34:34;101476.19;;;15.81;100.00
72110;BME280;59983;52.010;5.420;2023-07-13T05:37:01;101475.50;;;15.84;100.00
72110;BME280;59983;52.010;5.420;2023-07-13T05:39:28;101484.16;;;15.90;100.00
72110;BME280;59983;52.010;5.420;2023-07-13T05:41:54;101486.59;;;15.95;100.00
72110;BME280;59983;52.010;5.420;2023-07-13T05:44:21;101489.84;;;16.00;100.00
72110;BME280;59983;52.010;5.420;2023-07-13T05:46:47;101489.50;;;16.05;100.00
72110;BME280;59983;52.010;5.420;2023-07-13T05:49:14;101481.31;;;16.05;100.00
72110;BME280;59983;52.010;5.420;2023-07-13T05:51:41;101488.06;;;16.11;100.00
72110;BME280;59983;52.010;5.420;2023-07-13T05:54:07;101488.19;;;16.19;100.00
72110;BME280;59983;52.010;5.420;2023-07-13T05:56:34;101496.00;;;16.20;100.00
72110;BME280;59983;52.010;5.420;2023-07-13T05:59:00;101496.00;;;16.20;100.00
72110;BME280;59983;52.010;5.420;2023-07-13T06:01:27;101497.22;;;16.23;100.00
72110;BME280;59983;52.010;5.420;2023-07-13T06:03:54;101505.19;;;16.31;100.00
72110;BME280;59983;52.010;5.420;2023-07-13T06:06:20;101510.28;;;16.33;100.00
72110;BME280;59983;52.010;5.420;2023-07-13T06:08:47;101509.94;;;16.34;100.00
72110;BME280;59983;52.010;5.420;2023-07-13T06:11:17;101511.84;;;16.34;100.00
72110;BME280;59983;52.010;5.420;2023-07-13T06:13:44;101505.72;;;16.40;100.00
72110;BME280;59983;52.010;5.420;2023-07-13T06:16:12;101513.25;;;16.47;100.00
72110;BME280;59983;52.010;5.420;2023-07-13T06:18:39;101514.03;;;16.48;100.00
72110;BME280;59983;52.010;5.420;2023-07-13T06:21:12;101527.78;;;16.51;100.00
72110;BME280;59983;52.010;5.420;2023-07-13T06:23:39;101531.38;;;16.55;100.00
72110;BME280;59983;52.010;5.420;2023-07-13T06:26:06;101543.53;;;16.58;100.00
72110;BME280;59983;52.010;5.420;2023-07-13T06:28:34;101531.41;;;16.59;100.00
72110;BME280;59983;52.010;5.420;2023-07-13T06:31:01;101532.31;;;16.66;100.00
72110;BME280;59983;52.010;5.420;2023-07-13T06:33:27;101540.28;;;16.75;100.00
72110;BME280;59983;52.010;5.420;2023-07-13T06:35:54;101547.03;;;16.81;100.00
72110;BME280;59983;52.010;5.420;2023-07-13T06:38:21;101533.34;;;16.81;100.00
72110;BME280;59983;52.010;5.420;2023-07-13T06:40:48;101537.66;;;16.82;100.00
72110;BME280;59983;52.010;5.420;2023-07-13T06:43:14;101529.03;;;16.80;100.00
72110;BME280;59983;52.010;5.420;2023-07-13T06:45:45;101527.06;;;16.81;100.00
72110;BME280;59983;52.010;5.420;2023-07-13T06:48:14;101540.81;;;16.84;100.00
72110;BME280;59983;52.010;5.420;2023-07-13T06:50:42;101542.53;;;16.96;100.00
72110;BME280;59983;52.010;5.420;2023-07-13T06:53:09;101547.38;;;17.06;100.00
72110;BME280;59983;52.010;5.420;2023-07-13T06:55:36;101540.31;;;17.05;100.00
72110;BME280;59983;52.010;5.420;2023-07-13T06:58:03;101552.88;;;17.06;100.00
72110;BME280;59983;52.010;5.420;2023-07-13T07:00:30;101555.66;;;17.10;100.00
72110;BME280;59983;52.010;5.420;2023-07-13T07:02:57;101556.03;;;17.08;100.00
72110;BME280;59983;52.010;5.420;2023-07-13T07:05:23;101554.84;;;17.09;100.00
72110;BME280;59983;52.010;5.420;2023-07-13T07:07:51;101552.13;;;17.09;100.00
72110;BME280;59983;52.010;5.420;2023-07-13T07:10:19;101563.88;;;17.10;100.00
72110;BME280;59983;52.010;5.420;2023-07-13T07:12:45;101566.72;;;17.17;100.00
72110;BME280;59983;52.010;5.420;2023-07-13T07:15:12;101573.88;;;17.25;100.00
72110;BME280;59983;52.010;5.420;2023-07-13T07:17:39;101563.81;;;17.36;100.00
72110;BME280;59983;52.010;5.420;2023-07-13T07:20:06;101558.50;;;17.50;100.00
72110;BME280;59983;52.010;5.420;2023-07-13T07:22:33;101560.16;;;17.59;100.00
72110;BME280;59983;52.010;5.420;2023-07-13T07:25:00;101554.31;;;17.64;100.00
72110;BME280;59983;52.010;5.420;2023-07-13T07:27:26;101559.13;;;17.70;100.00
72110;BME280;59983;52.010;5.420;2023-07-13T07:29:56;101562.03;;;17.85;100.00
72110;BME280;59983;52.010;5.420;2023-07-13T07:32:29;101551.34;;;18.17;100.00
72110;BME280;59983;52.010;5.420;2023-07-13T07:35:16;101558.94;;;18.34;100.00
72110;BME280;59983;52.010;5.420;2023-07-13T07:37:43;101551.53;;;18.38;100.00
72110;BME280;59983;52.010;5.420;2023-07-13T07:40:12;101555.47;;;18.40;100.00
72110;BME280;59983;52.010;5.420;2023-07-13T07:42:42;101549.47;;;18.28;100.00
72110;BME280;59983;52.010;5.420;2023-07-13T07:45:09;101556.06;;;18.20;100.00
72110;BME280;59983;52.010;5.420;2023-07-13T07:47:37;101545.03;;;18.13;100.00
72110;BME280;59983;52.010;5.420;2023-07-13T07:50:05;101555.25;;;18.12;100.00
72110;BME280;59983;52.010;5.420;2023-07-13T07:52:32;101554.06;;;18.13;100.00
72110;BME280;59983;52.010;5.420;2023-07-13T07:54:58;101566.94;;;18.05;100.00
72110;BME280;59983;52.010;5.420;2023-07-13T07:57:28;101559.03;;;18.00;100.00
72110;BME280;59983;52.010;5.420;2023-07-13T07:59:57;101563.75;;;18.00;100.00
72110;BME280;59983;52.010;5.420;2023-07-13T08:02:26;101566.53;;;18.03;100.00
72110;BME280;59983;52.010;5.420;2023-07-13T08:04:56;101553.28;;;18.13;100.00
72110;BME280;59983;52.010;5.420;2023-07-13T08:07:25;101557.69;;;18.24;100.00
72110;BME280;59983;52.010;5.420;2023-07-13T08:09:53;101556.72;;;18.50;100.00
72110;BME280;59983;52.010;5.420;2023-07-13T08:12:20;101550.91;;;18.62;100.00
72110;BME280;59983;52.010;5.420;2023-07-13T08:15:11;101565.81;;;18.58;100.00
72110;BME280;59983;52.010;5.420;2023-07-13T08:17:37;101550.50;;;18.57;100.00
72110;BME280;59983;52.010;5.420;2023-07-13T08:20:05;101543.13;;;18.72;100.00
72110;BME280;59983;52.010;5.420;2023-07-13T08:22:31;101536.94;;;18.85;100.00
72110;BME280;59983;52.010;5.420;2023-07-13T08:24:59;101540.16;;;18.94;100.00
72110;BME280;59983;52.010;5.420;2023-07-13T08:27:27;101542.25;;;19.26;96.69
72110;BME280;59983;52.010;5.420;2023-07-13T08:29:54;101547.78;;;19.30;92.75
72110;BME280;59983;52.010;5.420;2023-07-13T08:32:22;101555.59;;;19.24;95.02
72110;BME280;59983;52.010;5.420;2023-07-13T08:34:50;101551.22;;;19.16;92.99
72110;BME280;59983;52.010;5.420;2023-07-13T08:37:18;101560.63;;;19.04;90.50
72110;BME280;59983;52.010;5.420;2023-07-13T08:39:46;101560.19;;;18.95;92.85
72110;BME280;59983;52.010;5.420;2023-07-13T08:47:38;101567.63;;;18.91;87.06
72110;BME280;59983;52.010;5.420;2023-07-13T08:50:11;101568.03;;;18.93;90.78
72110;BME280;59983;52.010;5.420;2023-07-13T08:52:40;101572.69;;;18.89;92.42
72110;BME280;59983;52.010;5.420;2023-07-13T08:55:15;101590.34;;;18.84;96.17
72110;BME280;59983;52.010;5.420;2023-07-13T08:57:46;101595.41;;;18.79;93.79
72110;BME280;59983;52.010;5.420;2023-07-13T09:00:15;101593.69;;;18.60;93.72
72110;BME280;59983;52.010;5.420;2023-07-13T09:02:46;101591.25;;;18.48;94.30
72110;BME280;59983;52.010;5.420;2023-07-13T09:05:32;101590.00;;;18.42;95.31
72110;BME280;59983;52.010;5.420;2023-07-13T09:10:44;101584.91;;;18.40;99.00
72110;BME280;59983;52.010;5.420;2023-07-13T09:15:52;101588.69;;;18.73;97.27
72110;BME280;59983;52.010;5.420;2023-07-13T09:18:27;101582.25;;;19.09;95.59
72110;BME280;59983;52.010;5.420;2023-07-13T09:21:06;101587.09;;;19.37;93.30
72110;BME280;59983;52.010;5.420;2023-07-13T09:23:35;101578.53;;;19.53;90.74
72110;BME280;59983;52.010;5.420;2023-07-13T09:26:16;101576.59;;;19.68;88.71
72110;BME280;59983;52.010;5.420;2023-07-13T09:28:47;101581.31;;;19.67;86.87
72110;BME280;59983;52.010;5.420;2023-07-13T09:31:24;101571.56;;;19.95;91.58
72110;BME280;59983;52.010;5.420;2023-07-13T09:33:52;101575.50;;;20.22;88.82
72110;BME280;59983;52.010;5.420;2023-07-13T09:36:26;101577.50;;;20.29;87.76
72110;BME280;59983;52.010;5.420;2023-07-13T09:39:15;101580.66;;;20.42;86.38
72110;BME280;59983;52.010;5.420;2023-07-13T09:41:59;101573.19;;;20.49;85.05
72110;BME280;59983;52.010;5.420;2023-07-13T09:46:58;101572.34;;;20.84;82.59
72110;BME280;59983;52.010;5.420;2023-07-13T09:49:36;101572.00;;;20.57;84.59
72110;BME280;59983;52.010;5.420;2023-07-13T09:52:11;101583.78;;;20.15;85.44
72110;BME280;59983;52.010;5.420;2023-07-13T09:54:38;101581.75;;;19.87;87.30
72110;BME280;59983;52.010;5.420;2023-07-13T09:57:16;101585.72;;;19.93;87.16
72110;BME280;59983;52.010;5.420;2023-07-13T09:59:46;101582.66;;;20.45;85.95
72110;BME280;59983;52.010;5.420;2023-07-13T10:02:23;101570.06;;;20.51;80.04
72110;BME280;59983;52.010;5.420;2023-07-13T10:04:58;101577.50;;;20.79;87.20
72110;BME280;59983;52.010;5.420;2023-07-13T10:07:25;101578.97;;;21.08;80.35
72110;BME280;59983;52.010;5.420;2023-07-13T10:10:01;101594.78;;;20.90;76.39
72110;BME280;59983;52.010;5.420;2023-07-13T10:12:30;101598.38;;;20.48;80.37
72110;BME280;59983;52.010;5.420;2023-07-13T10:15:02;101597.56;;;20.15;82.14
72110;BME280;59983;52.010;5.420;2023-07-13T10:17:50;101595.16;;;19.96;78.37
72110;BME280;59983;52.010;5.420;2023-07-13T10:20:18;101613.66;;;19.92;80.07
72110;BME280;59983;52.010;5.420;2023-07-13T10:23:00;101603.38;;;19.78;80.68
72110;BME280;59983;52.010;5.420;2023-07-13T10:25:32;101604.22;;;19.89;81.13
72110;BME280;59983;52.010;5.420;2023-07-13T10:28:09;101610.16;;;20.09;83.41
72110;BME280;59983;52.010;5.420;2023-07-13T10:30:40;101620.06;;;20.60;78.16
72110;BME280;59983;52.010;5.420;2023-07-13T10:33:12;101605.44;;;20.74;75.82
72110;BME280;59983;52.010;5.420;2023-07-13T10:35:41;101606.66;;;20.44;76.52
72110;BME280;59983;52.010;5.420;2023-07-13T10:38:13;101641.94;;;19.82;90.84
72110;BME280;59983;52.010;5.420;2023-07-13T10:40:56;101619.41;;;18.85;98.85
72110;BME280;59983;52.010;5.420;2023-07-13T10:43:29;101620.28;;;18.49;100.00
72110;BME280;59983;52.010;5.420;2023-07-13T10:46:00;101620.69;;;18.51;100.00
72110;BME280;59983;52.010;5.420;2023-07-13T10:48:28;101629.19;;;18.76;100.00
72110;BME280;59983;52.010;5.420;2023-07-13T10:50:58;101627.38;;;19.01;100.00
72110;BME280;59983;52.010;5.420;2023-07-13T10:53:33;101625.56;;;19.27;100.00
72110;BME280;59983;52.010;5.420;2023-07-13T10:58:43;101631.94;;;19.48;100.00
72110;BME280;59983;52.010;5.420;2023-07-13T11:01:17;101625.25;;;19.42;96.22
72110;BME280;59983;52.010;5.420;2023-07-13T11:04:01;101632.75;;;19.49;100.00
72110;BME280;59983;52.010;5.420;2023-07-13T11:06:40;101629.63;;;19.54;96.59
72110;BME280;59983;52.010;5.420;2023-07-13T11:09:30;101631.31;;;19.73;98.55
72110;BME280;59983;52.010;5.420;2023-07-13T11:12:02;101643.06;;;19.70;91.50
72110;BME280;59983;52.010;5.420;2023-07-13T11:14:37;101634.06;;;19.73;92.27
72110;BME280;59983;52.010;5.420;2023-07-13T11:22:44;101639.63;;;20.05;92.07
72110;BME280;59983;52.010;5.420;2023-07-13T11:28:05;101619.66;;;20.44;94.52
72110;BME280;59983;52.010;5.420;2023-07-13T11:31:21;101630.28;;;20.52;85.61
72110;BME280;59983;52.010;5.420;2023-07-13T11:33:49;101638.13;;;20.36;85.90
72110;BME280;59983;52.010;5.420;2023-07-13T11:36:18;101629.91;;;20.61;87.10
72110;BME280;59983;52.010;5.420;2023-07-13T11:38:58;101624.75;;;20.81;83.64
72110;BME280;59983;52.010;5.420;2023-07-13T11:41:37;101621.25;;;20.59;81.71
72110;BME280;59983;52.010;5.420;2023-07-13T11:46:48;101635.75;;;20.17;89.85
72110;BME280;59983;52.010;5.420;2023-07-13T11:49:21;101641.72;;;20.44;87.43
72110;BME280;59983;52.010;5.420;2023-07-13T11:51:50;101637.72;;;20.98;91.48
72110;BME280;59983;52.010;5.420;2023-07-13T11:54:32;101636.06;;;21.43;87.28
72110;BME280;59983;52.010;5.420;2023-07-13T11:57:02;101637.66;;;21.34;79.81
72110;BME280;59983;52.010;5.420;2023-07-13T11:59:33;101638.41;;;21.45;79.64
72110;BME280;59983;52.010;5.420;2023-07-13T12:02:15;101633.63;;;21.60;72.44
72110;BME280;59983;52.010;5.420;2023-07-13T12:04:43;101631.56;;;21.78;71.41
72110;BME280;59983;52.010;5.420;2023-07-13T12:07:18;101630.00;;;21.77;76.35
72110;BME280;59983;52.010;5.420;2023-07-13T12:09:45;101636.09;;;22.17;79.21
72110;BME280;59983;52.010;5.420;2023-07-13T12:12:13;101625.47;;;22.64;75.44
72110;BME280;59983;52.010;5.420;2023-07-13T12:14:40;101634.47;;;22.75;71.70
72110;BME280;59983;52.010;5.420;2023-07-13T12:17:18;101633.25;;;22.79;70.45
72110;BME280;59983;52.010;5.420;2023-07-13T12:19:45;101627.66;;;22.83;67.51
72110;BME280;59983;52.010;5.420;2023-07-13T12:22:14;101628.63;;;22.66;69.32
72110;BME280;59983;52.010;5.420;2023-07-13T12:24:43;101624.03;;;22.48;70.06
72110;BME280;59983;52.010;5.420;2023-07-13T12:27:19;101626.97;;;23.13;67.98
72110;BME280;59983;52.010;5.420;2023-07-13T12:30:00;101638.41;;;23.53;65.88
72110;BME280;59983;52.010;5.420;2023-07-13T12:32:27;101629.75;;;23.13;64.80
72110;BME280;59983;52.010;5.420;2023-07-13T12:35:16;101635.53;;;22.88;66.60
72110;BME280;59983;52.010;5.420;2023-07-13T12:37:47;101656.50;;;22.37;65.82
72110;BME280;59983;52.010;5.420;2023-07-13T12:40:19;101647.00;;;22.38;65.92
72110;BME280;59983;52.010;5.420;2023-07-13T12:42:50;101642.75;;;22.26;66.49
72110;BME280;59983;52.010;5.420;2023-07-13T12:45:23;101638.81;;;22.27;65.03
72110;BME280;59983;52.010;5.420;2023-07-13T12:48:16;101649.81;;;22.31;61.40
72110;BME280;59983;52.010;5.420;2023-07-13T12:50:49;101649.72;;;21.83;63.90
72110;BME280;59983;52.010;5.420;2023-07-13T12:53:21;101645.88;;;21.59;65.03
72110;BME280;59983;52.010;5.420;2023-07-13T12:59:01;101654.72;;;22.09;66.68
72110;BME280;59983;52.010;5.420;2023-07-13T13:01:13;101647.00;;;22.38;65.07
72110;BME280;59983;52.010;5.420;2023-07-13T13:03:47;101643.19;;;22.70;67.60
72110;BME280;59983;52.010;5.420;2023-07-13T13:08:50;101646.59;;;22.92;59.06
72110;BME280;59983;52.010;5.420;2023-07-13T13:11:18;101638.31;;;23.26;60.83
72110;BME280;59983;52.010;5.420;2023-07-13T13:13:45;101648.66;;;23.59;59.18
72110;BME280;59983;52.010;5.420;2023-07-13T13:18:52;101658.91;;;23.25;58.42
72110;BME280;59983;52.010;5.420;2023-07-13T13:21:20;101661.28;;;23.23;58.50
72110;BME280;59983;52.010;5.420;2023-07-13T13:23:47;101654.81;;;22.99;60.54
72110;BME280;59983;52.010;5.420;2023-07-13T13:26:15;101659.66;;;22.84;58.77
72110;BME280;59983;52.010;5.420;2023-07-13T13:28:45;101660.72;;;22.52;59.56
72110;BME280;59983;52.010;5.420;2023-07-13T13:31:12;101661.69;;;22.80;59.84